createdAt,value
2023-01-19T06:34:44.826Z,2.76
2023-01-19T06:36:47.772Z,2.97
2023-01-19T06:38:50.437Z,3.11
2023-01-19T06:40:55.084Z,3.22
2023-01-19T06:42:58.167Z,3.32
2023-01-19T06:45:01.110Z,3.40
2023-01-19T06:47:15.997Z,3.46
2023-01-19T06:49:18.898Z,3.50
2023-01-19T06:51:23.617Z,3.55
2023-01-19T06:53:27.981Z,3.57
2023-01-19T06:55:30.762Z,3.58
2023-01-19T06:57:33.424Z,3.59
2023-01-19T06:59:36.191Z,3.60
2023-01-19T07:01:39.022Z,3.60
2023-01-19T07:03:41.754Z,3.61
2023-01-19T07:05:44.523Z,3.61
2023-01-19T07:07:52.638Z,3.64
2023-01-19T07:09:55.514Z,3.66
2023-01-19T07:11:58.284Z,3.66
2023-01-19T07:14:01.214Z,3.65
2023-01-19T07:16:07.349Z,3.68
2023-01-19T07:18:10.874Z,3.65
2023-01-19T07:20:15.152Z,3.64
2023-01-19T07:22:18.338Z,3.64
2023-01-19T07:24:22.365Z,3.64
2023-01-19T07:26:25.305Z,3.64
2023-01-19T07:28:31.296Z,3.65
2023-01-19T07:30:34.191Z,3.67
2023-01-19T07:32:37.073Z,3.65
2023-01-19T07:34:39.831Z,3.65
2023-01-19T07:36:44.909Z,3.65
2023-01-19T07:38:47.552Z,3.66
2023-01-19T07:40:51.747Z,3.65
2023-01-19T07:42:54.656Z,3.54
2023-01-19T07:44:57.574Z,3.56
2023-01-19T07:47:00.281Z,3.59
2023-01-19T07:49:03.132Z,3.62
2023-01-19T07:51:10.451Z,3.65
2023-01-19T07:53:15.251Z,3.69
2023-01-19T07:55:18.207Z,3.71
2023-01-19T07:57:22.753Z,3.73
2023-01-19T07:59:25.833Z,3.75
2023-01-19T08:01:29.615Z,3.77
2023-01-19T08:03:33.950Z,3.76
2023-01-19T08:05:36.880Z,3.77
2023-01-19T08:07:39.740Z,3.78
2023-01-19T08:09:42.549Z,3.80
2023-01-19T08:11:45.343Z,3.84
2023-01-19T08:13:49.656Z,3.82
2023-01-19T08:15:53.291Z,3.85
2023-01-19T08:17:57.754Z,3.85
2023-01-19T08:20:00.636Z,3.83
2023-01-19T08:22:03.771Z,3.85
2023-01-19T08:24:07.091Z,3.86
2023-01-19T08:26:20.366Z,3.88
2023-01-19T08:28:25.314Z,3.91
2023-01-19T08:30:30.290Z,3.93
2023-01-19T08:32:33.032Z,3.91
2023-01-19T08:34:36.210Z,3.93
2023-01-19T08:36:39.151Z,3.95
2023-01-19T08:38:44.651Z,3.99
2023-01-19T08:40:47.661Z,3.99
2023-01-19T08:42:50.696Z,4.00
2023-01-19T08:44:58.041Z,4.01
2023-01-19T08:47:02.816Z,4.06
2023-01-19T08:49:05.539Z,4.07
2023-01-19T08:51:08.394Z,4.12
2023-01-19T08:53:11.415Z,4.13
2023-01-19T08:55:14.205Z,4.14
2023-01-19T08:57:16.907Z,4.14
2023-01-19T08:59:19.672Z,4.14
2023-01-19T09:01:22.718Z,4.13
2023-01-19T09:03:26.932Z,4.15
2023-01-19T09:05:31.763Z,4.17
2023-01-19T09:07:35.712Z,4.20
2023-01-19T09:09:43.345Z,4.24
2023-01-19T09:11:48.329Z,4.25
2023-01-19T09:13:51.308Z,4.25
2023-01-19T09:15:56.254Z,4.26
2023-01-19T09:17:59.301Z,4.26
2023-01-19T09:20:04.531Z,4.25
2023-01-19T09:22:07.341Z,4.24
2023-01-19T09:24:10.144Z,4.28
2023-01-19T09:26:12.902Z,4.29
2023-01-19T09:28:17.694Z,4.32
2023-01-19T09:30:21.551Z,4.32
2023-01-19T09:32:24.335Z,4.29
2023-01-19T09:34:27.323Z,4.27
2023-01-19T09:36:32.631Z,4.29
2023-01-19T09:38:35.915Z,4.32
2023-01-19T09:40:43.653Z,4.37
2023-01-19T09:42:54.476Z,4.37
2023-01-19T09:44:57.132Z,4.38
2023-01-19T09:47:02.408Z,4.41
2023-01-19T09:49:13.377Z,4.42
2023-01-19T09:51:19.418Z,4.42
2023-01-19T09:53:34.980Z,4.43
2023-01-19T09:55:41.149Z,4.47
2023-01-19T09:57:45.063Z,4.48
2023-01-19T09:59:51.246Z,4.51
2023-01-19T10:02:07.676Z,4.52
2023-01-19T10:04:41.394Z,4.51
2023-01-19T10:06:44.939Z,4.52
2023-01-19T10:08:56.728Z,4.50
2023-01-19T10:11:02.202Z,4.53
2023-01-19T10:13:31.233Z,4.55
2023-01-19T10:15:47.368Z,4.56
2023-01-19T10:18:02.941Z,4.56
2023-01-19T10:20:14.738Z,4.55
2023-01-19T10:22:22.178Z,4.57
2023-01-19T10:24:30.022Z,4.60
2023-01-19T10:26:35.656Z,4.67
2023-01-19T10:28:39.914Z,4.68
2023-01-19T10:30:47.624Z,4.66
2023-01-19T10:32:51.016Z,4.65
2023-01-19T10:34:55.670Z,4.68
2023-01-19T10:37:03.767Z,4.72
2023-01-19T10:39:08.203Z,4.75
2023-01-19T10:41:15.737Z,4.79
2023-01-19T10:43:40.339Z,4.81
2023-01-19T10:45:43.406Z,4.83
2023-01-19T10:47:47.678Z,4.81
2023-01-19T10:49:50.785Z,4.82
2023-01-19T10:51:54.571Z,4.84
2023-01-19T10:54:00.831Z,4.87
2023-01-19T10:56:17.753Z,4.87
2023-01-19T10:58:30.103Z,4.81
2023-01-19T11:00:36.531Z,4.79
2023-01-19T11:02:51.660Z,4.77
2023-01-19T11:04:56.702Z,4.78
2023-01-19T11:07:15.180Z,4.77
2023-01-19T11:09:21.076Z,4.78
2023-01-19T11:11:25.731Z,4.80
2023-01-19T11:13:28.527Z,4.79
2023-01-19T11:15:34.853Z,4.80
2023-01-19T11:17:37.987Z,4.85
2023-01-19T11:19:40.810Z,4.87
2023-01-19T11:21:43.764Z,4.89
2023-01-19T11:23:51.200Z,4.92
2023-01-19T11:25:55.981Z,4.95
2023-01-19T11:28:00.424Z,4.95
2023-01-19T11:30:11.463Z,4.97
2023-01-19T11:32:22.454Z,5.02
2023-01-19T11:34:31.803Z,5.09
2023-01-19T11:36:36.576Z,5.19
2023-01-19T11:38:44.595Z,5.25
2023-01-19T11:40:51.829Z,5.30
2023-01-19T11:42:54.659Z,5.25
2023-01-19T11:45:05.149Z,5.21
2023-01-19T11:47:13.730Z,5.17
2023-01-19T11:49:23.094Z,5.15
2023-01-19T11:51:30.965Z,5.15
2023-01-19T11:53:35.085Z,5.17
2023-01-19T11:55:42.508Z,5.20
2023-01-19T11:57:48.176Z,5.26
2023-01-19T11:59:51.136Z,5.30
2023-01-19T12:01:59.791Z,5.29
2023-01-19T12:04:07.792Z,5.28
2023-01-19T12:06:13.674Z,5.29
2023-01-19T12:08:21.811Z,5.31
2023-01-19T12:10:28.107Z,5.32
2023-01-19T12:12:33.373Z,5.29
2023-01-19T12:14:42.187Z,5.22
2023-01-19T12:16:45.581Z,5.20
2023-01-19T12:18:55.466Z,5.18
2023-01-19T12:20:58.874Z,5.17
2023-01-19T12:23:12.841Z,5.12
2023-01-19T12:25:23.834Z,5.15
2023-01-19T12:27:38.793Z,5.17
2023-01-19T12:29:42.803Z,5.18
2023-01-19T12:31:51.606Z,5.17
2023-01-19T12:33:56.737Z,5.16
2023-01-19T12:36:00.944Z,5.16
2023-01-19T12:38:43.663Z,5.17
2023-01-19T12:40:46.991Z,5.16
2023-01-19T12:42:56.973Z,5.14
2023-01-19T12:45:07.730Z,5.12
2023-01-19T12:47:24.579Z,5.12
2023-01-19T12:49:32.494Z,5.11
2023-01-19T12:51:35.614Z,5.08
2023-01-19T12:53:38.445Z,5.09
2023-01-19T12:55:46.768Z,5.10
2023-01-19T12:57:57.669Z,5.12
2023-01-19T13:00:02.613Z,5.15
2023-01-19T13:02:33.546Z,5.15
2023-01-19T13:04:38.466Z,5.15
2023-01-19T13:07:10.903Z,5.14
2023-01-19T13:09:31.356Z,5.14
2023-01-19T13:11:34.779Z,5.13
2023-01-19T13:13:38.709Z,5.13
2023-01-19T13:15:41.772Z,5.12
2023-01-19T13:17:50.897Z,5.12
2023-01-19T13:20:01.798Z,5.10
2023-01-19T13:22:37.625Z,5.06
2023-01-19T13:24:56.998Z,5.08
2023-01-19T13:27:04.441Z,5.06
2023-01-19T13:29:09.614Z,5.06
2023-01-19T13:31:14.346Z,5.08
2023-01-19T13:33:22.322Z,5.11
2023-01-19T13:35:26.755Z,5.14
2023-01-19T13:37:35.052Z,5.14
2023-01-19T13:39:41.382Z,5.15
2023-01-19T13:41:45.568Z,5.14
2023-01-19T13:43:52.709Z,5.14
2023-01-19T13:45:56.407Z,5.14
2023-01-19T13:48:02.459Z,5.14
2023-01-19T13:50:06.193Z,5.15
2023-01-19T13:52:14.672Z,5.15
2023-01-19T13:54:18.094Z,5.18
2023-01-19T13:56:23.582Z,5.13
2023-01-19T13:58:28.039Z,5.18
2023-01-19T14:00:31.618Z,5.18
2023-01-19T14:02:34.498Z,5.18
2023-01-19T14:04:37.354Z,5.19
2023-01-19T14:06:45.896Z,5.19
2023-01-19T14:09:06.729Z,5.20
2023-01-19T14:11:14.895Z,5.20
2023-01-19T14:13:19.806Z,5.20
2023-01-19T14:15:22.728Z,5.18
2023-01-19T14:17:27.731Z,5.20
2023-01-19T14:19:30.629Z,5.21
2023-01-19T14:21:41.816Z,5.21
2023-01-19T14:23:47.982Z,5.19
2023-01-19T14:25:52.204Z,5.20
2023-01-19T14:28:28.338Z,5.22
2023-01-19T14:30:35.839Z,5.25
2023-01-19T14:32:47.711Z,5.22
2023-01-19T14:34:52.728Z,5.22
2023-01-19T14:36:55.675Z,5.22
2023-01-19T14:39:01.095Z,5.24
2023-01-19T14:41:05.527Z,5.25
2023-01-19T14:43:14.289Z,5.22
2023-01-19T14:45:21.243Z,5.17
2023-01-19T14:47:32.132Z,5.19
2023-01-19T14:49:37.076Z,5.21
2023-01-19T14:51:39.979Z,5.20
2023-01-19T14:53:48.745Z,5.19
2023-01-19T14:55:55.539Z,5.20
2023-01-19T14:57:59.680Z,5.23
2023-01-19T15:00:07.353Z,5.23
2023-01-19T15:02:10.635Z,5.26
2023-01-19T15:04:13.614Z,5.26
2023-01-19T15:06:19.747Z,5.26
2023-01-19T15:08:31.332Z,5.29
2023-01-19T15:10:36.299Z,5.30
2023-01-19T15:12:39.273Z,5.29
2023-01-19T15:14:43.397Z,5.31
2023-01-19T15:16:46.724Z,5.30
2023-01-19T15:18:49.421Z,5.29
2023-01-19T15:20:52.239Z,5.29
2023-01-19T15:22:55.007Z,5.26
2023-01-19T15:24:59.945Z,5.24
2023-01-19T15:27:02.792Z,5.24
2023-01-19T15:29:17.431Z,5.23
2023-01-19T15:31:23.297Z,5.23
2023-01-19T15:33:31.560Z,5.19
2023-01-19T15:35:34.325Z,5.20
2023-01-19T15:37:37.518Z,5.20
2023-01-19T15:39:43.553Z,5.17
2023-01-19T15:41:48.852Z,5.19
2023-01-19T15:43:52.736Z,5.20
2023-01-19T15:46:01.239Z,5.18
2023-01-19T15:48:07.051Z,5.17
2023-01-19T15:50:11.370Z,5.17
2023-01-19T15:52:15.410Z,5.16
2023-01-19T15:54:20.164Z,5.16
2023-01-19T15:56:24.826Z,5.15
2023-01-19T15:58:27.524Z,5.15
2023-01-19T16:00:31.249Z,5.15
2023-01-19T16:02:34.301Z,5.13
2023-01-19T16:04:38.660Z,5.11
2023-01-19T16:06:41.604Z,5.10
2023-01-19T16:08:45.107Z,5.09
2023-01-19T16:10:48.463Z,5.08
2023-01-19T16:12:52.582Z,5.06
2023-01-19T16:14:55.671Z,5.04
2023-01-19T16:16:59.890Z,5.03
2023-01-19T16:19:02.769Z,5.01
2023-01-19T16:21:07.176Z,5.01
2023-01-19T16:23:14.853Z,4.99
2023-01-19T16:25:18.479Z,4.96
2023-01-19T16:27:21.388Z,4.96
2023-01-19T16:29:24.207Z,4.94
2023-01-19T16:31:27.130Z,4.91
2023-01-19T16:33:29.918Z,4.89
2023-01-19T16:35:32.589Z,4.86
2023-01-19T16:37:37.071Z,4.81
2023-01-19T16:39:39.780Z,4.70
2023-01-19T16:41:43.831Z,4.58
2023-01-19T16:43:51.674Z,4.47
2023-01-19T16:45:59.054Z,4.39
2023-01-19T16:48:01.926Z,4.44
2023-01-19T16:50:05.217Z,4.35
2023-01-19T16:52:08.239Z,4.30
2023-01-19T16:54:14.530Z,4.37
2023-01-19T16:56:17.212Z,4.44
2023-01-19T16:58:20.076Z,4.47
2023-01-19T17:00:22.922Z,4.49
2023-01-19T17:02:25.897Z,4.45
2023-01-19T17:04:29.471Z,4.42
2023-01-19T17:06:32.726Z,4.45
2023-01-19T17:08:36.429Z,4.46
2023-01-19T17:10:41.940Z,4.45
2023-01-19T17:12:44.785Z,4.46
2023-01-19T17:14:48.257Z,4.44
2023-01-19T17:16:51.486Z,4.43
2023-01-19T17:18:54.649Z,4.43
2023-01-19T17:21:02.253Z,4.39
2023-01-19T17:23:05.119Z,4.34
2023-01-19T17:25:09.033Z,4.37
2023-01-19T17:27:13.571Z,4.40
2023-01-19T17:29:17.362Z,4.44
2023-01-19T17:31:22.244Z,4.45
2023-01-19T17:33:25.995Z,4.47
2023-01-19T17:35:28.764Z,4.50
2023-01-19T17:37:31.623Z,4.52
2023-01-19T17:39:35.153Z,4.54
2023-01-19T17:41:39.138Z,4.56
2023-01-19T17:43:43.765Z,4.57
2023-01-19T17:45:46.676Z,4.57
2023-01-19T17:47:50.211Z,4.61
2023-01-19T17:49:52.984Z,4.59
2023-01-19T17:51:56.065Z,4.57
2023-01-19T17:53:59.704Z,4.58
2023-01-19T17:56:06.258Z,4.61
2023-01-19T17:58:08.962Z,4.61
2023-01-19T18:00:14.663Z,4.62
2023-01-19T18:02:17.632Z,4.63
2023-01-19T18:04:20.355Z,4.63
2023-01-19T18:06:23.640Z,4.66
2023-01-19T18:08:26.386Z,4.67
2023-01-19T18:10:29.233Z,4.68
2023-01-19T18:12:31.990Z,4.69
2023-01-19T18:14:34.657Z,4.66
2023-01-19T18:16:39.744Z,4.64
2023-01-19T18:18:44.011Z,4.64
2023-01-19T18:20:46.780Z,4.57
2023-01-19T18:22:49.417Z,4.51
2023-01-19T18:24:52.195Z,4.48
2023-01-19T18:26:55.767Z,4.49
2023-01-19T18:28:59.229Z,4.53
2023-01-19T18:31:02.309Z,4.56
2023-01-19T18:33:06.721Z,4.52
2023-01-19T18:35:10.021Z,4.50
2023-01-19T18:37:12.655Z,4.48
2023-01-19T18:39:16.008Z,4.47
2023-01-19T18:41:20.502Z,4.47
2023-01-19T18:43:23.165Z,4.46
2023-01-19T18:45:25.858Z,4.45
2023-01-19T18:47:28.580Z,4.35
2023-01-19T18:49:32.522Z,4.34
2023-01-19T18:51:36.588Z,4.34
2023-01-19T18:53:39.579Z,4.39
2023-01-19T18:55:52.077Z,4.36
2023-01-19T18:57:54.905Z,4.35
2023-01-19T18:59:57.520Z,4.34
2023-01-19T19:02:01.404Z,4.36
2023-01-19T19:04:04.184Z,4.41
2023-01-19T19:06:09.104Z,4.42
2023-01-19T19:08:12.103Z,4.42
2023-01-19T19:10:15.339Z,4.44
2023-01-19T19:12:18.209Z,4.42
2023-01-19T19:14:20.826Z,4.40
2023-01-19T19:16:23.930Z,4.37
2023-01-19T19:18:26.725Z,4.37
2023-01-19T19:20:29.680Z,4.38
2023-01-19T19:22:33.989Z,4.36
2023-01-19T19:24:36.627Z,4.33
2023-01-19T19:26:39.294Z,4.31
2023-01-19T19:28:42.319Z,4.30
2023-01-19T19:30:46.463Z,4.29
2023-01-19T19:32:53.943Z,4.25
2023-01-19T19:34:58.751Z,4.27
2023-01-19T19:37:02.368Z,4.24
2023-01-19T19:39:06.992Z,4.23
2023-01-19T19:41:12.211Z,4.21
2023-01-19T19:43:14.937Z,4.20
2023-01-19T19:45:17.738Z,4.21
2023-01-19T19:47:20.740Z,4.21
2023-01-19T19:49:23.935Z,4.21
2023-01-19T19:51:28.480Z,4.20
2023-01-19T19:53:31.122Z,4.13
2023-01-19T19:55:35.093Z,4.08
2023-01-19T19:57:37.939Z,4.06
2023-01-19T19:59:40.951Z,4.08
2023-01-19T20:01:44.951Z,4.08
2023-01-19T20:03:48.074Z,4.07
2023-01-19T20:05:50.724Z,4.06
2023-01-19T20:07:53.333Z,4.04
2023-01-19T20:09:56.206Z,4.04
2023-01-19T20:12:00.363Z,4.05
2023-01-19T20:14:05.873Z,4.07
2023-01-19T20:16:11.134Z,4.09
2023-01-19T20:18:14.073Z,4.09
2023-01-19T20:20:17.285Z,4.12
2023-01-19T20:22:20.020Z,4.11
2023-01-19T20:24:22.662Z,4.12
2023-01-19T20:26:27.756Z,4.09
2023-01-19T20:28:31.765Z,4.06
2023-01-19T20:30:34.594Z,4.06
2023-01-19T21:19:45.613Z,2.70
2023-01-19T21:21:48.372Z,2.95
2023-01-19T21:23:51.157Z,3.15
2023-01-19T21:25:55.903Z,3.31
2023-01-19T21:27:58.660Z,3.40
2023-01-19T21:30:02.296Z,3.50
2023-01-19T21:32:05.224Z,3.53
2023-01-19T21:34:08.088Z,3.57
2023-01-19T21:36:12.999Z,3.63
2023-01-19T21:38:15.803Z,3.70
2023-01-19T21:40:22.474Z,3.71
2023-01-19T21:42:25.325Z,3.71
2023-01-19T21:44:28.443Z,3.73
2023-01-19T21:46:32.972Z,3.77
2023-01-19T21:48:35.726Z,3.77
2023-01-19T21:50:38.492Z,3.77
2023-01-19T21:52:42.592Z,3.80
2023-01-19T21:54:45.345Z,3.79
2023-01-19T21:56:48.044Z,3.79
2023-01-19T21:58:53.259Z,3.80
2023-01-19T22:01:04.017Z,3.80
2023-01-19T22:03:09.107Z,3.78
2023-01-19T22:05:12.549Z,3.80
2023-01-19T22:07:15.631Z,3.82
2023-01-19T22:09:19.735Z,3.80
2023-01-19T22:11:23.439Z,3.76
2023-01-19T22:13:26.213Z,3.71
2023-01-19T22:15:28.862Z,3.67
2023-01-19T22:17:31.757Z,3.65
2023-01-19T22:19:35.858Z,3.65
2023-01-19T22:21:38.689Z,3.64
2023-01-19T22:23:42.174Z,3.58
2023-01-19T22:25:46.191Z,3.56
2023-01-19T22:27:49.245Z,3.58
2023-01-19T22:29:51.952Z,3.60
2023-01-19T22:31:54.848Z,3.62
